Time;durP1;ratioP1;P1;durP2;ratioP2;P2;SDS_P1;SDS_P2;PMS_P1;PMS_P2;Temp;Humidity;BMP_temperature;BMP_pressure;BME280_temperature;BME280_humidity;BME280_pressure;Samples;Min_cycle;Max_cycle;Signal;HPM_P1;HPM_P2
2022/12/26 06:56:46;;;;;;;31.25;21.02;;;;;;;1.20;100.00;98450.98;1890636;76;28053;-64
2022/12/26 06:59:13;;;;;;;31.23;18.98;;;;;;;1.18;100.00;98441.14;1853458;77;20843;-60
2022/12/26 07:01:41;;;;;;;27.90;18.62;;;;;;;1.23;100.00;98448.70;1837266;77;21182;-59
2022/12/26 07:04:08;;;;;;;25.72;15.48;;;;;;;1.30;100.00;98446.80;1827098;78;21189;-59
2022/12/26 07:06:39;;;;;;;19.32;13.15;;;;;;;1.42;100.00;98442.09;1827207;78;20983;-58
2022/12/26 07:09:11;;;;;;;17.45;11.93;;;;;;;1.55;100.00;98449.38;1828152;78;20844;-59
2022/12/26 07:11:40;;;;;;;14.73;11.78;;;;;;;1.65;100.00;98446.20;1826265;78;20928;-66
2022/12/26 07:14:06;;;;;;;19.73;12.33;;;;;;;1.75;100.00;98435.90;1826794;78;21124;-63
2022/12/26 07:16:37;;;;;;;19.12;12.13;;;;;;;1.84;100.00;98425.31;1827286;78;20961;-62
2022/12/26 07:19:04;;;;;;;14.95;11.18;;;;;;;1.92;100.00;98431.11;1827731;78;20915;-59
2022/12/26 07:21:31;;;;;;;14.53;10.80;;;;;;;2.00;100.00;98435.27;1827769;78;20896;-59
2022/12/26 07:23:57;;;;;;;14.60;11.00;;;;;;;2.05;100.00;98434.88;1852817;75;20926;-60
2022/12/26 07:26:24;;;;;;;14.38;11.00;;;;;;;2.08;100.00;98438.91;1849866;77;21205;-58
2022/12/26 07:28:55;;;;;;;14.68;11.50;;;;;;;2.12;100.00;98433.45;1843464;77;20953;-63
2022/12/26 07:31:24;;;;;;;16.67;12.37;;;;;;;2.18;100.00;98435.21;1846747;77;20915;-60
2022/12/26 07:33:53;;;;;;;17.10;10.20;;;;;;;2.24;100.00;98431.66;1851591;77;20911;-61
2022/12/26 07:36:20;;;;;;;14.03;10.30;;;;;;;2.26;100.00;98426.94;1856233;77;20915;-62
2022/12/26 07:38:48;;;;;;;13.62;9.73;;;;;;;2.27;100.00;98429.89;1805010;78;20934;-59
2022/12/26 07:44:00;;;;;;;13.98;10.58;;;;;;;2.35;100.00;98432.22;1787207;78;20931;-61
2022/12/26 07:46:26;;;;;;;13.13;10.28;;;;;;;2.38;100.00;98427.77;1789477;78;21469;-62
2022/12/26 07:48:53;;;;;;;32.40;18.90;;;;;;;2.41;100.00;98428.66;1823494;78;20896;-62
2022/12/26 07:51:27;;;;;;;88.97;50.15;;;;;;;2.42;100.00;98417.05;1790953;80;21115;-57
2022/12/26 07:53:53;;;;;;;23.55;15.98;;;;;;;2.42;100.00;98419.70;1823613;78;21406;-58
2022/12/26 07:56:20;;;;;;;16.73;12.10;;;;;;;2.43;100.00;98437.16;1763424;79;20936;-63
2022/12/26 07:58:50;;;;;;;38.45;25.30;;;;;;;2.44;100.00;98437.46;1844755;77;21355;-63
2022/12/26 08:01:17;;;;;;;17.35;12.88;;;;;;;2.45;100.00;98417.90;1844535;77;21360;-62
2022/12/26 08:03:44;;;;;;;17.52;14.07;;;;;;;2.47;100.00;98406.58;1829669;77;21098;-59
2022/12/26 08:06:10;;;;;;;18.07;13.22;;;;;;;2.50;100.00;98400.03;1839691;77;20908;-59
2022/12/26 08:08:37;;;;;;;16.85;13.40;;;;;;;2.55;100.00;98393.03;1832335;77;20968;-62
2022/12/26 08:11:06;;;;;;;16.97;12.60;;;;;;;2.58;100.00;98412.41;1841639;77;20966;-60
2022/12/26 08:13:34;;;;;;;17.95;13.68;;;;;;;2.60;100.00;98420.92;1827594;77;20988;-65
2022/12/26 08:16:08;;;;;;;17.23;12.55;;;;;;;2.61;100.00;98422.55;1824278;77;21176;-64
2022/12/26 08:18:35;;;;;;;20.68;14.55;;;;;;;2.65;100.00;98432.95;1778128;79;20935;-64
2022/12/26 08:21:01;;;;;;;20.85;14.75;;;;;;;2.65;100.00;98443.53;1767987;79;20932;-61
2022/12/26 08:23:29;;;;;;;22.80;15.18;;;;;;;2.65;100.00;98443.53;1775854;80;20931;-64
2022/12/26 08:25:56;;;;;;;21.68;15.68;;;;;;;2.68;100.00;98436.47;1767553;80;21442;-63
2022/12/26 08:28:22;;;;;;;19.07;14.30;;;;;;;2.69;100.00;98444.67;1754091;81;21067;-62
2022/12/26 08:30:49;;;;;;;21.35;15.23;;;;;;;2.68;100.00;98432.50;1754394;79;21003;-63
2022/12/26 08:33:16;;;;;;;21.80;14.83;;;;;;;2.63;100.00;98429.73;1782734;80;20975;-62
2022/12/26 08:35:42;;;;;;;22.62;14.55;;;;;;;2.60;100.00;98410.34;1784517;79;20932;-64
2022/12/26 08:38:09;;;;;;;22.25;15.53;;;;;;;2.59;100.00;98406.08;1785282;80;20958;-61
2022/12/26 08:40:36;;;;;;;21.50;15.48;;;;;;;2.59;100.00;98404.75;1785053;80;21246;-59
2022/12/26 08:43:03;;;;;;;20.17;14.10;;;;;;;2.58;100.00;98399.19;1775091;79;20923;-59
2022/12/26 08:45:30;;;;;;;22.10;14.68;;;;;;;2.57;100.00;98394.92;1782910;80;20975;-60
2022/12/26 08:47:58;;;;;;;18.85;12.95;;;;;;;2.60;100.00;98389.19;1785281;80;20904;-58
2022/12/26 08:50:25;;;;;;;16.87;12.10;;;;;;;2.62;100.00;98391.59;1785048;79;20856;-63
2022/12/26 08:52:51;;;;;;;16.65;11.53;;;;;;;2.62;100.00;98387.11;1785158;80;21116;-59
2022/12/26 08:55:18;;;;;;;16.27;11.60;;;;;;;2.65;100.00;98387.98;1768836;79;21015;-59
2022/12/26 08:57:45;;;;;;;15.50;11.65;;;;;;;2.67;100.00;98392.52;1768518;80;20880;-59
2022/12/26 09:00:14;;;;;;;17.15;11.83;;;;;;;2.70;100.00;98401.84;1792014;80;20982;-59
2022/12/26 09:02:40;;;;;;;13.03;10.70;;;;;;;2.74;100.00;98393.22;1792125;80;20979;-64
2022/12/26 09:05:07;;;;;;;15.90;11.45;;;;;;;2.78;100.00;98395.41;1792109;80;21057;-62
2022/12/26 09:07:34;;;;;;;16.23;12.37;;;;;;;2.78;100.00;98403.34;1791689;79;21403;-59
2022/12/26 09:10:01;;;;;;;23.27;15.05;;;;;;;2.77;100.00;98398.56;1775302;80;20916;-65
2022/12/26 09:12:27;;;;;;;22.40;14.98;;;;;;;2.74;100.00;98401.15;1762448;80;21438;-64
2022/12/26 09:14:54;;;;;;;25.97;15.95;;;;;;;2.75;100.00;98388.22;1785694;80;20915;-59
2022/12/26 09:17:20;;;;;;;13.88;11.63;;;;;;;2.80;100.00;98377.45;1792120;80;21119;-62
2022/12/26 09:19:53;;;;;;;16.85;11.93;;;;;;;2.78;100.00;98359.16;1783304;79;20845;-66
2022/12/26 09:25:06;;;;;;;15.53;12.05;;;;;;;2.81;100.00;98360.02;1783892;80;20868;-61
2022/12/26 09:27:33;;;;;;;16.00;11.55;;;;;;;2.82;100.00;98348.92;1784486;80;20978;-62
2022/12/26 09:30:00;;;;;;;15.58;10.90;;;;;;;2.83;100.00;98336.00;1771410;79;21107;-61
2022/12/26 09:32:31;;;;;;;14.85;12.25;;;;;;;2.82;100.00;98334.38;1790857;80;20888;-64
2022/12/26 09:34:57;;;;;;;18.50;13.68;;;;;;;2.78;100.00;98329.54;1747881;80;20849;-60
2022/12/26 09:37:23;;;;;;;15.03;11.90;;;;;;;2.78;100.00;98334.02;1844441;77;20919;-63
2022/12/26 09:39:50;;;;;;;11.83;9.98;;;;;;;2.78;100.00;98330.05;1839043;77;20916;-63
2022/12/26 09:42:41;;;;;;;13.85;9.50;;;;;;;2.75;100.00;98330.03;1815197;79;21226;-62
2022/12/26 09:45:16;;;;;;;16.07;10.20;;;;;;;2.75;100.00;98333.99;1814477;79;20908;-64
2022/12/26 09:48:03;;;;;;;12.37;10.40;;;;;;;2.73;100.00;98336.04;1827359;77;20919;-62
2022/12/26 09:50:37;;;;;;;13.35;10.45;;;;;;;2.75;100.00;98332.67;1837247;77;21461;-61
2022/12/26 09:53:17;;;;;;;14.27;9.23;;;;;;;2.75;100.00;98323.41;1826935;77;20880;-64
2022/12/26 09:55:56;;;;;;;12.95;10.60;;;;;;;2.72;100.00;98321.22;1825062;77;21061;-64
2022/12/26 09:58:48;;;;;;;12.47;9.25;;;;;;;2.72;100.00;98310.64;1805547;79;20881;-60
2022/12/26 10:01:27;;;;;;;12.73;9.45;;;;;;;2.72;100.00;98312.48;1805641;79;20953;-60
2022/12/26 10:04:01;;;;;;;15.10;9.93;;;;;;;2.70;100.00;98298.69;1815270;77;20927;-61
2022/12/26 10:06:43;;;;;;;12.35;9.55;;;;;;;2.68;100.00;98292.83;1835315;78;21026;-59
2022/12/26 10:09:30;;;;;;;14.68;10.48;;;;;;;2.65;100.00;98282.19;1822674;78;21219;-57
2022/12/26 10:12:08;;;;;;;13.70;9.80;;;;;;;2.63;100.00;98277.66;1818279;79;20896;-58
2022/12/26 10:15:00;;;;;;;11.90;9.90;;;;;;;2.59;100.00;98277.81;1823044;78;21092;-64
2022/12/26 10:17:47;;;;;;;11.65;9.68;;;;;;;2.59;100.00;98270.42;1836860;78;20865;-59
2022/12/26 10:20:26;;;;;;;13.45;10.55;;;;;;;2.63;100.00;98266.27;1805374;79;20892;-63
2022/12/26 10:23:06;;;;;;;13.30;9.85;;;;;;;2.63;100.00;98267.08;1821992;78;21221;-63
2022/12/26 10:26:02;;;;;;;12.65;8.90;;;;;;;2.61;100.00;98258.58;1824054;77;20880;-60
2022/12/26 10:28:54;;;;;;;9.85;8.78;;;;;;;2.62;100.00;98260.68;1834185;77;21019;-71
2022/12/26 10:31:44;;;;;;;13.72;9.20;;;;;;;2.58;100.00;98248.97;1804425;79;21572;-62
2022/12/26 10:34:25;;;;;;;12.85;8.80;;;;;;;2.54;100.00;98247.29;1828407;78;20992;-61
2022/12/26 10:37:00;;;;;;;12.05;9.20;;;;;;;2.52;100.00;98245.40;1830448;78;21254;-58
